createdAt,value
2022-09-24T00:01:28.724Z,5.90
2022-09-24T00:04:00.107Z,5.80
2022-09-24T00:06:28.997Z,5.60
2022-09-24T00:08:57.106Z,6.40
2022-09-24T00:11:26.312Z,7.00
2022-09-24T00:13:55.187Z,6.97
2022-09-24T00:16:25.645Z,6.47
2022-09-24T00:18:53.500Z,6.37
2022-09-24T00:21:30.124Z,6.60
2022-09-24T00:23:59.932Z,5.47
2022-09-24T00:26:45.464Z,6.10
2022-09-24T00:29:15.305Z,6.30
2022-09-24T00:31:42.066Z,6.13
2022-09-24T00:34:08.811Z,6.10
2022-09-24T00:36:35.572Z,6.10
2022-09-24T00:39:02.396Z,5.40
2022-09-24T00:41:31.917Z,5.97
2022-09-24T00:43:59.839Z,5.07
2022-09-24T00:46:29.535Z,6.00
2022-09-24T00:49:03.983Z,6.10
2022-09-24T00:51:33.579Z,5.93
2022-09-24T00:54:05.824Z,5.43
2022-09-24T00:56:36.516Z,5.93
2022-09-24T00:59:06.478Z,6.33
2022-09-24T01:01:33.288Z,6.43
2022-09-24T01:04:02.860Z,5.53
2022-09-24T01:06:29.451Z,5.77
2022-09-24T01:09:20.338Z,5.93
2022-09-24T01:12:14.442Z,6.53
2022-09-24T01:15:13.341Z,6.50
2022-09-24T01:18:09.485Z,5.50
2022-09-24T01:20:45.321Z,5.40
2022-09-24T01:23:48.801Z,5.97
2022-09-24T01:26:19.824Z,5.93
2022-09-24T01:29:28.322Z,5.40
2022-09-24T01:32:18.724Z,5.60
2022-09-24T01:34:56.796Z,6.17
2022-09-24T01:37:25.765Z,5.63
2022-09-24T01:39:54.345Z,6.00
2022-09-24T01:42:23.020Z,6.53
2022-09-24T01:44:50.597Z,6.50
2022-09-24T01:47:39.699Z,6.27
2022-09-24T01:50:08.915Z,6.60
2022-09-24T01:52:41.639Z,6.77
2022-09-24T01:55:13.075Z,5.47
2022-09-24T01:57:46.598Z,5.20
2022-09-24T02:00:16.790Z,6.10
2022-09-24T02:03:23.879Z,5.37
2022-09-24T02:06:05.227Z,5.67
2022-09-24T02:08:40.626Z,5.63
2022-09-24T02:11:13.712Z,4.80
2022-09-24T02:13:56.709Z,5.17
2022-09-24T02:16:34.961Z,5.07
2022-09-24T02:19:05.952Z,4.83
2022-09-24T02:21:34.663Z,5.73
2022-09-24T02:24:05.841Z,5.47
2022-09-24T02:26:32.570Z,5.73
2022-09-24T02:28:59.613Z,5.90
2022-09-24T02:31:32.794Z,6.40
2022-09-24T02:34:20.615Z,6.50
2022-09-24T02:36:54.747Z,6.53
2022-09-24T02:39:21.987Z,7.87
2022-09-24T02:41:49.921Z,8.87
2022-09-24T02:44:17.144Z,9.60
2022-09-24T02:46:47.281Z,8.60
2022-09-24T02:49:14.893Z,8.00
2022-09-24T02:51:42.494Z,7.60
2022-09-24T02:54:09.781Z,7.03
2022-09-24T02:56:36.956Z,7.60
2022-09-24T02:59:04.605Z,6.80
2022-09-24T03:01:32.369Z,6.63
2022-09-24T03:03:59.100Z,7.93
2022-09-24T03:06:26.094Z,8.40
2022-09-24T03:08:55.977Z,8.67
2022-09-24T03:11:23.464Z,8.03
2022-09-24T03:13:50.536Z,8.53
2022-09-24T03:16:18.309Z,8.50
2022-09-24T03:18:47.408Z,7.80
2022-09-24T03:21:18.355Z,8.73
2022-09-24T03:23:45.136Z,8.20
2022-09-24T03:26:12.125Z,8.33
2022-09-24T03:28:38.896Z,8.20
2022-09-24T03:31:06.261Z,7.40
2022-09-24T03:33:39.982Z,9.07
2022-09-24T03:36:07.892Z,9.60
2022-09-24T03:38:35.399Z,8.37
2022-09-24T03:41:03.252Z,9.23
2022-09-24T03:43:30.193Z,8.20
2022-09-24T03:45:57.190Z,8.93
2022-09-24T03:48:25.604Z,8.00
2022-09-24T03:50:53.608Z,7.97
2022-09-24T03:53:20.782Z,8.53
2022-09-24T03:55:56.847Z,9.27
2022-09-24T03:58:24.501Z,8.50
2022-09-24T04:00:55.156Z,9.80
2022-09-24T04:03:22.700Z,8.90
2022-09-24T04:05:51.294Z,8.67
2022-09-24T04:08:19.157Z,8.83
2022-09-24T04:10:47.071Z,8.20
2022-09-24T04:13:13.908Z,8.53
2022-09-24T04:15:40.669Z,8.57
2022-09-24T04:18:07.652Z,8.73
2022-09-24T04:20:34.748Z,7.87
2022-09-24T04:23:02.216Z,8.10
2022-09-24T04:25:30.744Z,9.00
2022-09-24T04:28:03.127Z,8.17
2022-09-24T04:30:31.181Z,8.37
2022-09-24T04:33:00.874Z,8.70
2022-09-24T04:35:29.799Z,11.40
2022-09-24T04:37:57.220Z,8.80
2022-09-24T04:40:23.854Z,8.00
2022-09-24T04:42:50.682Z,7.60
2022-09-24T04:45:20.936Z,8.40
2022-09-24T04:47:53.463Z,8.50
2022-09-24T04:50:21.072Z,7.63
2022-09-24T04:52:47.766Z,8.87
2022-09-24T04:55:14.759Z,9.40
2022-09-24T04:57:41.531Z,9.00
2022-09-24T05:00:14.591Z,7.73
2022-09-24T05:02:41.977Z,8.00
2022-09-24T05:05:09.107Z,7.47
2022-09-24T05:07:36.383Z,7.87
2022-09-24T05:10:03.541Z,7.33
2022-09-24T05:12:30.155Z,8.50
2022-09-24T05:14:56.795Z,7.47
2022-09-24T05:17:23.464Z,7.43
2022-09-24T05:19:50.159Z,8.10
2022-09-24T05:22:16.791Z,7.60
2022-09-24T05:24:43.414Z,8.10
2022-09-24T05:27:10.241Z,8.37
2022-09-24T05:29:41.376Z,8.13
2022-09-24T05:32:13.220Z,7.70
2022-09-24T05:34:41.455Z,7.90
2022-09-24T05:37:08.199Z,7.67
2022-09-24T05:39:34.833Z,8.10
2022-09-24T05:42:04.255Z,7.70
2022-09-24T05:44:32.005Z,6.90
2022-09-24T05:46:58.872Z,7.57
2022-09-24T05:49:25.602Z,7.27
2022-09-24T05:51:52.528Z,8.50
2022-09-24T05:54:19.776Z,8.73
2022-09-24T05:56:47.248Z,7.80
2022-09-24T05:59:13.878Z,7.90
2022-09-24T06:01:40.767Z,8.20
2022-09-24T06:04:09.059Z,7.77
2022-09-24T06:06:36.106Z,8.80
2022-09-24T06:09:03.437Z,7.83
2022-09-24T06:11:40.143Z,8.27
2022-09-24T06:14:08.491Z,8.60
2022-09-24T06:16:35.515Z,7.60
2022-09-24T06:19:02.402Z,8.43
2022-09-24T06:21:29.141Z,7.47
2022-09-24T06:23:56.040Z,8.30
2022-09-24T06:26:22.821Z,7.80
2022-09-24T06:28:49.483Z,7.73
2022-09-24T06:31:16.227Z,8.40
2022-09-24T06:33:43.070Z,7.60
2022-09-24T06:36:10.485Z,8.60
2022-09-24T06:38:40.221Z,7.50
2022-09-24T06:41:07.647Z,8.17
2022-09-24T06:43:34.629Z,7.77
2022-09-24T06:46:02.201Z,8.33
2022-09-24T06:48:29.460Z,8.00
2022-09-24T06:50:56.519Z,7.73
2022-09-24T06:53:23.652Z,8.77
2022-09-24T06:55:50.511Z,7.97
2022-09-24T06:58:20.594Z,8.53
2022-09-24T07:00:53.173Z,7.30
2022-09-24T07:03:21.489Z,8.00
2022-09-24T07:05:48.265Z,6.60
2022-09-24T07:08:15.220Z,6.90
2022-09-24T07:10:46.597Z,7.57
2022-09-24T07:13:14.120Z,8.03
2022-09-24T07:15:41.792Z,7.93
2022-09-24T07:18:09.512Z,7.80
2022-09-24T07:20:38.866Z,7.97
2022-09-24T07:23:07.088Z,7.97
2022-09-24T07:25:34.183Z,8.10
2022-09-24T07:28:03.101Z,7.70
2022-09-24T07:30:30.187Z,7.50
2022-09-24T07:32:57.305Z,8.20
2022-09-24T07:35:24.156Z,8.87
2022-09-24T07:37:57.408Z,8.13
2022-09-24T07:40:24.558Z,7.57
2022-09-24T07:42:51.385Z,8.30
2022-09-24T07:45:18.165Z,8.27
2022-09-24T07:47:44.869Z,7.40
2022-09-24T07:50:12.238Z,7.53
2022-09-24T07:52:39.359Z,7.17
2022-09-24T07:55:07.187Z,7.00
2022-09-24T07:57:33.849Z,6.60
2022-09-24T08:00:00.523Z,7.27
2022-09-24T08:02:27.114Z,7.30
2022-09-24T08:04:54.579Z,7.60
2022-09-24T08:07:21.228Z,7.57
2022-09-24T08:09:47.854Z,6.60
2022-09-24T08:12:14.486Z,7.90
2022-09-24T08:14:43.210Z,8.27
2022-09-24T08:17:09.912Z,7.80
2022-09-24T08:19:36.551Z,7.80
2022-09-24T08:22:05.228Z,7.87
2022-09-24T08:24:31.936Z,7.00
2022-09-24T08:26:58.817Z,8.40
2022-09-24T08:29:25.481Z,7.27
2022-09-24T08:31:52.790Z,7.73
2022-09-24T08:34:19.433Z,7.90
2022-09-24T08:36:46.102Z,7.40
2022-09-24T08:39:13.663Z,7.37
2022-09-24T08:41:57.045Z,8.00
2022-09-24T08:44:46.405Z,8.47
2022-09-24T08:47:39.084Z,8.57
2022-09-24T08:50:11.574Z,7.87
2022-09-24T08:52:44.527Z,8.27
2022-09-24T08:55:22.916Z,7.20
2022-09-24T08:58:02.649Z,7.57
2022-09-24T09:00:35.793Z,8.20
2022-09-24T09:03:13.284Z,8.63
2022-09-24T09:05:52.273Z,8.97
2022-09-24T09:08:50.012Z,8.13
2022-09-24T09:11:12.933Z,7.93
2022-09-24T09:13:44.999Z,8.57
2022-09-24T09:16:29.046Z,8.43
2022-09-24T09:19:06.485Z,9.43
2022-09-24T09:22:13.071Z,12.27
2022-09-24T09:24:50.985Z,7.23
2022-09-24T09:27:19.030Z,7.73
2022-09-24T09:29:53.818Z,7.07
2022-09-24T09:32:29.274Z,13.47
2022-09-24T09:35:01.627Z,9.73
2022-09-24T09:37:48.155Z,6.93
2022-09-24T09:40:36.491Z,7.37
2022-09-24T09:43:09.242Z,8.30
2022-09-24T09:46:03.525Z,15.10
2022-09-24T09:48:58.642Z,17.50
2022-09-24T09:51:26.352Z,10.97
2022-09-24T09:54:03.479Z,7.27
2022-09-24T09:56:31.450Z,11.00
2022-09-24T09:59:13.101Z,6.20
2022-09-24T10:01:46.595Z,6.93
2022-09-24T10:04:34.486Z,5.97
2022-09-24T10:07:15.798Z,7.07
2022-09-24T10:09:44.055Z,5.87
2022-09-24T10:12:22.316Z,5.83
2022-09-24T10:15:16.292Z,5.40
2022-09-24T10:17:46.066Z,5.80
2022-09-24T10:20:17.497Z,4.73
2022-09-24T10:22:50.838Z,4.30
2022-09-24T10:25:29.048Z,3.50
2022-09-24T10:28:25.852Z,2.77
2022-09-24T10:31:01.645Z,2.70
2022-09-24T10:33:37.755Z,2.60
2022-09-24T10:36:07.643Z,2.30
2022-09-24T10:38:34.592Z,2.37
2022-09-24T10:41:01.616Z,2.57
2022-09-24T10:43:28.318Z,2.53
2022-09-24T10:46:17.493Z,2.43
2022-09-24T10:48:49.942Z,2.07
2022-09-24T10:51:29.640Z,2.20
2022-09-24T10:54:17.421Z,2.50
2022-09-24T10:56:51.600Z,2.43
2022-09-24T11:00:00.298Z,2.60
2022-09-24T11:02:45.714Z,2.80
2022-09-24T11:05:21.925Z,2.87
2022-09-24T11:08:21.493Z,3.00
2022-09-24T11:11:16.164Z,2.63
2022-09-24T11:13:56.080Z,2.40
2022-09-24T11:16:39.077Z,2.80
2022-09-24T11:19:14.497Z,3.03
2022-09-24T11:22:16.452Z,3.20
2022-09-24T11:25:08.029Z,2.53
2022-09-24T11:27:53.888Z,3.23
2022-09-24T11:30:47.325Z,3.30
2022-09-24T11:33:36.110Z,3.77
2022-09-24T11:36:21.122Z,3.20
2022-09-24T11:39:06.437Z,3.40
2022-09-24T11:41:52.333Z,3.80
2022-09-24T11:44:58.547Z,3.67
2022-09-24T11:47:31.368Z,4.00
2022-09-24T11:50:23.300Z,3.73
2022-09-24T11:53:10.556Z,3.93
2022-09-24T11:55:49.306Z,3.40
2022-09-24T11:58:24.098Z,3.80
2022-09-24T12:00:59.289Z,3.33
2022-09-24T12:03:39.982Z,2.73
2022-09-24T12:06:37.764Z,3.10
2022-09-24T12:09:31.705Z,3.07
2022-09-24T12:12:04.042Z,3.20
2022-09-24T12:14:43.112Z,2.90
2022-09-24T12:17:27.627Z,3.40
2022-09-24T12:20:03.731Z,3.17
2022-09-24T12:22:32.965Z,3.10
2022-09-24T12:25:01.137Z,3.00
2022-09-24T12:27:35.727Z,3.23
2022-09-24T12:30:30.268Z,3.20
2022-09-24T12:33:09.218Z,3.33
2022-09-24T12:35:45.154Z,2.97
2022-09-24T12:38:18.606Z,3.33
2022-09-24T12:41:24.244Z,2.83
2022-09-24T12:44:11.295Z,3.17
2022-09-24T12:46:50.415Z,3.37
2022-09-24T12:49:25.734Z,3.27
2022-09-24T12:52:27.529Z,3.10
2022-09-24T12:55:28.114Z,2.90
2022-09-24T12:57:55.952Z,3.37
2022-09-24T13:00:42.501Z,3.37
2022-09-24T13:03:43.210Z,3.13
2022-09-24T13:06:32.477Z,3.10
2022-09-24T13:08:59.768Z,3.10
2022-09-24T13:11:26.411Z,3.67
2022-09-24T13:14:11.739Z,3.10
2022-09-24T13:16:40.997Z,2.87
2022-09-24T13:19:34.093Z,2.97
2022-09-24T13:22:02.108Z,2.70
2022-09-24T13:24:47.687Z,2.33
2022-09-24T13:27:37.885Z,3.40
2022-09-24T13:30:19.902Z,2.77
2022-09-24T13:32:58.716Z,2.73
2022-09-24T13:35:30.330Z,3.07
2022-09-24T13:38:15.791Z,3.13
2022-09-24T13:40:50.762Z,2.87
2022-09-24T13:43:37.228Z,3.70
2022-09-24T13:46:07.965Z,4.10
2022-09-24T13:48:41.328Z,2.80
2022-09-24T13:51:13.336Z,3.57
2022-09-24T13:53:55.854Z,3.47
2022-09-24T13:56:23.277Z,3.40
2022-09-24T13:58:51.405Z,3.17
2022-09-24T14:01:29.837Z,4.00
2022-09-24T14:04:15.782Z,3.87
2022-09-24T14:06:45.950Z,3.27
2022-09-24T14:09:25.774Z,3.97
2022-09-24T14:11:55.978Z,4.00
2022-09-24T14:14:25.067Z,4.07
2022-09-24T14:16:55.453Z,3.40
2022-09-24T14:19:25.802Z,4.50
2022-09-24T14:21:55.047Z,4.23
2022-09-24T14:24:30.932Z,4.43
2022-09-24T14:27:02.594Z,4.60
2022-09-24T14:29:48.462Z,5.27
2022-09-24T14:32:33.449Z,3.97
2022-09-24T14:35:27.769Z,4.17
2022-09-24T14:38:09.020Z,4.57
2022-09-24T14:41:01.391Z,4.33
2022-09-24T14:43:47.259Z,4.10
2022-09-24T14:46:17.448Z,4.17
2022-09-24T14:48:44.356Z,4.03
2022-09-24T14:51:24.041Z,3.80
2022-09-24T14:54:18.255Z,3.90
2022-09-24T14:56:45.126Z,4.40
2022-09-24T14:59:17.678Z,3.90
2022-09-24T15:01:44.502Z,4.50
2022-09-24T15:04:23.221Z,4.33
2022-09-24T15:06:49.962Z,3.80
2022-09-24T15:09:28.381Z,3.57
2022-09-24T15:11:57.089Z,3.30
2022-09-24T15:14:32.312Z,3.83
2022-09-24T15:17:28.835Z,3.93
2022-09-24T15:19:57.664Z,4.10
2022-09-24T15:22:29.072Z,4.30
2022-09-24T15:25:01.183Z,4.20
2022-09-24T15:27:29.866Z,3.50
2022-09-24T15:29:59.737Z,4.20
2022-09-24T15:32:28.440Z,4.53
2022-09-24T15:34:58.141Z,4.20
2022-09-24T15:37:26.814Z,4.70
2022-09-24T15:39:57.922Z,4.70
2022-09-24T15:42:27.871Z,4.00
2022-09-24T15:44:54.655Z,3.60
2022-09-24T15:47:21.611Z,3.57
2022-09-24T15:49:48.382Z,4.13
2022-09-24T15:52:25.857Z,3.70
2022-09-24T15:54:54.543Z,4.33
2022-09-24T15:57:22.590Z,4.20
2022-09-24T15:59:49.809Z,5.53
2022-09-24T16:02:29.297Z,5.80
2022-09-24T16:05:00.265Z,5.10
2022-09-24T16:07:30.060Z,6.33
2022-09-24T16:09:56.691Z,5.53
2022-09-24T16:12:27.833Z,6.00
2022-09-24T16:14:58.840Z,6.77
2022-09-24T16:17:26.708Z,5.73
2022-09-24T16:19:53.470Z,5.83
2022-09-24T16:22:20.870Z,6.03
2022-09-24T16:24:47.797Z,7.07
2022-09-24T16:27:14.419Z,6.13
2022-09-24T16:29:41.088Z,6.93
2022-09-24T16:32:07.821Z,5.67
2022-09-24T16:34:34.589Z,5.57
2022-09-24T16:37:01.345Z,6.33
2022-09-24T16:39:28.027Z,6.23
2022-09-24T16:41:54.732Z,6.40
2022-09-24T16:44:21.439Z,5.90
2022-09-24T16:46:48.486Z,5.70
2022-09-24T16:49:15.300Z,6.13
2022-09-24T16:51:42.221Z,5.87
2022-09-24T16:54:08.963Z,6.23
2022-09-24T16:56:37.475Z,5.87
2022-09-24T16:59:04.230Z,5.67
2022-09-24T17:01:31.047Z,5.40
2022-09-24T17:03:58.860Z,5.63
2022-09-24T17:06:31.094Z,6.20
2022-09-24T17:09:16.871Z,6.63
2022-09-24T17:11:45.604Z,6.80
2022-09-24T17:14:12.725Z,7.50
2022-09-24T17:16:40.706Z,7.00
2022-09-24T17:19:08.184Z,7.90
2022-09-24T17:21:36.545Z,7.00
2022-09-24T17:24:04.053Z,7.33
2022-09-24T17:26:31.109Z,8.27
2022-09-24T17:28:58.013Z,8.10
2022-09-24T17:31:25.676Z,8.53
2022-09-24T17:34:00.436Z,8.43
2022-09-24T17:36:28.987Z,7.60
2022-09-24T17:38:56.310Z,6.83
2022-09-24T17:41:23.392Z,7.83
2022-09-24T17:43:51.285Z,6.80
2022-09-24T17:46:23.754Z,6.97
2022-09-24T17:48:53.542Z,6.40
2022-09-24T17:51:22.677Z,5.43
2022-09-24T17:53:51.681Z,6.50
2022-09-24T17:56:19.122Z,5.53
2022-09-24T17:58:47.055Z,5.90
2022-09-24T18:01:13.740Z,6.47
2022-09-24T18:03:41.224Z,6.30
2022-09-24T18:06:10.874Z,5.63
2022-09-24T18:08:45.493Z,6.80
2022-09-24T18:11:24.141Z,6.87
2022-09-24T18:13:58.832Z,6.73
2022-09-24T18:16:27.919Z,5.90
2022-09-24T18:18:55.792Z,7.50
2022-09-24T18:21:24.091Z,9.63
2022-09-24T18:23:55.496Z,10.03
2022-09-24T18:26:24.762Z,8.17
2022-09-24T18:28:57.896Z,6.80
2022-09-24T18:31:30.167Z,7.43
2022-09-24T18:34:05.224Z,6.07
2022-09-24T18:36:34.673Z,7.13
2022-09-24T18:39:01.444Z,6.07
2022-09-24T18:41:29.701Z,6.63
2022-09-24T18:43:58.952Z,6.10
2022-09-24T18:46:28.912Z,6.77
2022-09-24T18:48:57.060Z,7.80
2022-09-24T18:51:26.684Z,7.83
2022-09-24T18:54:02.966Z,8.17
2022-09-24T18:56:29.917Z,10.20
2022-09-24T18:59:09.132Z,10.37
2022-09-24T19:01:36.842Z,11.33
2022-09-24T19:04:04.241Z,12.27
2022-09-24T19:06:31.881Z,12.60
2022-09-24T19:08:58.684Z,13.67
2022-09-24T19:11:25.401Z,11.80
2022-09-24T19:13:53.966Z,11.17
2022-09-24T19:16:25.436Z,11.77
2022-09-24T19:18:53.428Z,11.03
2022-09-24T19:21:21.065Z,10.93
2022-09-24T19:23:49.915Z,10.70
2022-09-24T19:26:28.545Z,10.47
2022-09-24T19:28:55.610Z,10.40
2022-09-24T19:31:25.173Z,10.80
2022-09-24T19:33:53.297Z,10.03
2022-09-24T19:36:21.349Z,10.20
2022-09-24T19:38:48.998Z,10.63
2022-09-24T19:41:21.150Z,11.07
2022-09-24T19:43:51.349Z,10.30
2022-09-24T19:46:20.548Z,11.93
2022-09-24T19:48:49.087Z,12.37
2022-09-24T19:51:18.967Z,13.03
2022-09-24T19:53:50.642Z,14.20
2022-09-24T19:56:19.374Z,14.37
2022-09-24T19:58:47.029Z,13.73
2022-09-24T20:01:17.334Z,13.53
2022-09-24T20:03:44.755Z,13.50
2022-09-24T20:06:17.363Z,14.80
2022-09-24T20:08:44.569Z,14.00
2022-09-24T20:11:15.023Z,14.20
2022-09-24T20:13:46.279Z,10.37
2022-09-24T20:16:21.706Z,11.10
2022-09-24T20:18:50.001Z,12.17
2022-09-24T20:21:18.383Z,13.03
2022-09-24T20:23:46.629Z,11.03
2022-09-24T20:26:33.689Z,20.00
2022-09-24T20:29:02.057Z,20.60
2022-09-24T20:31:29.338Z,16.87
2022-09-24T20:33:56.333Z,10.77
2022-09-24T20:36:24.809Z,11.37
2022-09-24T20:38:52.584Z,10.60
2022-09-24T20:41:22.659Z,10.03
2022-09-24T20:43:50.026Z,10.80
2022-09-24T20:46:21.868Z,10.23
2022-09-24T20:48:48.878Z,9.63
2022-09-24T20:51:18.319Z,8.90
2022-09-24T20:53:46.253Z,7.80
2022-09-24T20:56:13.765Z,8.07
2022-09-24T20:58:41.026Z,10.63
2022-09-24T21:01:09.139Z,11.40
2022-09-24T21:03:44.288Z,9.27
2022-09-24T21:06:12.708Z,7.87
2022-09-24T21:08:41.778Z,8.57
2022-09-24T21:11:10.554Z,8.37
2022-09-24T21:13:41.562Z,7.47
2022-09-24T21:16:10.077Z,7.47
2022-09-24T21:18:40.296Z,7.50
2022-09-24T21:21:13.188Z,7.80
2022-09-24T21:23:40.122Z,8.00
2022-09-24T21:26:18.425Z,8.30
2022-09-24T21:28:46.718Z,7.13
2022-09-24T21:31:14.951Z,7.37
2022-09-24T21:33:45.784Z,6.23
2022-09-24T21:36:13.483Z,7.90
2022-09-24T21:38:40.102Z,7.60
2022-09-24T21:41:08.376Z,7.47
2022-09-24T21:43:35.401Z,7.57
2022-09-24T21:46:05.317Z,7.30
2022-09-24T21:48:35.572Z,7.37
2022-09-24T21:51:08.533Z,6.47
2022-09-24T21:53:36.674Z,6.87
2022-09-24T21:56:04.694Z,8.37
2022-09-24T21:58:31.890Z,7.20
2022-09-24T22:01:04.278Z,7.77
2022-09-24T22:03:32.048Z,6.40
2022-09-24T22:06:03.277Z,6.60
2022-09-24T22:08:31.677Z,6.63
2022-09-24T22:11:08.193Z,6.30
2022-09-24T22:13:36.888Z,6.50
2022-09-24T22:16:05.630Z,6.00
2022-09-24T22:18:34.025Z,6.07
2022-09-24T22:21:07.300Z,5.83
2022-09-24T22:23:34.022Z,5.50
2022-09-24T22:26:00.702Z,6.30
2022-09-24T22:28:28.141Z,6.10
2022-09-24T22:30:57.010Z,5.57
2022-09-24T22:33:42.564Z,5.60
2022-09-24T22:36:09.589Z,6.70
2022-09-24T22:38:36.762Z,5.87
2022-09-24T22:41:04.943Z,5.77
2022-09-24T22:43:32.780Z,6.93
2022-09-24T22:46:01.095Z,5.90
2022-09-24T22:48:28.058Z,5.53
2022-09-24T22:50:55.434Z,6.13
2022-09-24T22:53:22.547Z,5.80
2022-09-24T22:55:52.643Z,5.70
2022-09-24T22:58:19.706Z,4.83
2022-09-24T23:00:46.419Z,5.27
2022-09-24T23:03:13.068Z,5.30
2022-09-24T23:05:39.673Z,4.97
2022-09-24T23:08:06.412Z,5.53
2022-09-24T23:10:33.474Z,4.90
2022-09-24T23:13:00.082Z,5.47
2022-09-24T23:15:26.750Z,5.87
2022-09-24T23:17:54.972Z,6.20
2022-09-24T23:20:22.608Z,6.27
2022-09-24T23:22:49.492Z,6.20
2022-09-24T23:25:16.186Z,6.77
2022-09-24T23:27:42.835Z,7.17
2022-09-24T23:30:10.171Z,7.50
2022-09-24T23:32:36.758Z,7.30
2022-09-24T23:35:03.481Z,8.27
2022-09-24T23:37:30.319Z,7.60
2022-09-24T23:39:57.010Z,7.13
2022-09-24T23:42:23.634Z,8.53
2022-09-24T23:44:50.243Z,7.80
2022-09-24T23:47:17.087Z,7.47
2022-09-24T23:49:43.735Z,7.03
2022-09-24T23:52:11.098Z,7.80
2022-09-24T23:54:39.420Z,7.37
2022-09-24T23:57:06.713Z,7.73
2022-09-24T23:59:34.492Z,9.23
